Time;durP1;ratioP1;P1;durP2;ratioP2;P2;SDS_P1;SDS_P2;PMS_P1;PMS_P2;Temp;Humidity;BMP_temperature;BMP_pressure;BME280_temperature;BME280_humidity;BME280_pressure;Samples;Min_cycle;Max_cycle;Signal;HPM_P1;HPM_P2
2021/06/05 00:00:37;;;;;;;10.02;5.88;;;;;;;14.88;66.72;100806.00;5028763;28;20086;-25
2021/06/05 00:03:03;;;;;;;10.88;5.90;;;;;;;14.76;67.21;100804.09;5029283;28;20029;-25
2021/06/05 00:05:29;;;;;;;7.82;5.90;;;;;;;14.89;66.86;100808.44;5028898;28;20025;-25
2021/06/05 00:07:54;;;;;;;8.30;6.20;;;;;;;14.91;67.68;100816.28;5028825;28;20037;-25
2021/06/05 00:10:31;;;;;;;10.10;6.90;;;;;;;14.60;68.60;100799.38;5028647;28;20057;-25
2021/06/05 00:12:57;;;;;;;9.15;6.80;;;;;;;14.85;67.57;100820.69;5028748;28;20033;-25
2021/06/05 00:15:28;;;;;;;10.38;5.90;;;;;;;14.50;68.45;100820.53;5028475;28;20034;-25
2021/06/05 00:17:53;;;;;;;7.85;6.10;;;;;;;14.64;67.65;100816.66;5028783;28;20036;-25
2021/06/05 00:20:19;;;;;;;10.57;6.72;;;;;;;14.97;66.96;100810.00;5028181;28;20029;-25
2021/06/05 00:22:45;;;;;;;10.38;7.70;;;;;;;14.89;67.53;100813.81;5028583;28;20033;-25
2021/06/05 00:25:12;;;;;;;11.50;7.82;;;;;;;14.48;68.75;100801.97;5028381;28;20102;-25
2021/06/05 00:27:38;;;;;;;14.35;8.48;;;;;;;14.45;69.38;100797.06;5027176;28;20036;-25
2021/06/05 00:30:05;;;;;;;11.85;8.15;;;;;;;14.54;68.97;100795.69;5028514;28;20042;-24
2021/06/05 00:32:30;;;;;;;10.38;7.30;;;;;;;14.50;68.74;100809.78;5028422;28;20021;-25
2021/06/05 00:34:56;;;;;;;9.40;6.47;;;;;;;14.34;68.84;100800.50;5028347;28;20034;-25
2021/06/05 00:37:23;;;;;;;8.35;5.80;;;;;;;14.46;68.37;100799.53;5028264;28;20564;-25
2021/06/05 00:39:48;;;;;;;9.63;6.10;;;;;;;14.31;68.95;100803.66;5028176;28;20072;-25
2021/06/05 00:42:14;;;;;;;8.02;5.60;;;;;;;14.03;69.47;100800.44;5028031;28;20084;-24
2021/06/05 00:44:40;;;;;;;10.40;5.97;;;;;;;14.05;70.25;100800.22;5028400;28;20505;-25
2021/06/05 00:47:05;;;;;;;8.48;5.60;;;;;;;14.21;69.13;100774.66;5027191;28;20025;-25
2021/06/05 00:49:31;;;;;;;7.70;5.15;;;;;;;14.77;66.68;100789.63;5028529;28;20104;-25
2021/06/05 00:51:57;;;;;;;8.77;6.28;;;;;;;14.80;66.57;100796.41;5026678;28;20912;-24
2021/06/05 00:54:22;;;;;;;8.90;6.20;;;;;;;14.69;66.85;100792.66;5026629;28;20448;-25
2021/06/05 00:56:53;;;;;;;12.13;6.53;;;;;;;14.50;67.84;100789.13;5026562;28;20456;-25
2021/06/05 00:59:19;;;;;;;11.30;7.05;;;;;;;14.42;68.38;100790.25;5028662;28;20849;-25
2021/06/05 01:01:45;;;;;;;10.88;6.78;;;;;;;14.34;68.89;100784.41;5028230;28;20033;-25
2021/06/05 01:04:10;;;;;;;10.23;7.53;;;;;;;14.65;67.80;100786.09;5027765;28;20029;-25
2021/06/05 01:06:57;;;;;;;10.45;7.10;;;;;;;14.95;66.47;100782.53;5011452;28;20036;-25
2021/06/05 01:09:32;;;;;;;10.02;7.20;;;;;;;14.89;66.70;100789.66;5033447;28;20127;-25
2021/06/05 01:12:19;;;;;;;12.90;7.50;;;;;;;14.71;66.95;100771.75;5033412;28;20481;-25
2021/06/05 01:14:51;;;;;;;10.27;6.47;;;;;;;14.76;66.67;100798.72;5017675;28;20473;-25
2021/06/05 01:17:27;;;;;;;8.68;6.20;;;;;;;14.66;66.54;100791.22;5017354;28;20025;-25
2021/06/05 01:19:58;;;;;;;9.35;5.57;;;;;;;14.19;67.95;100790.16;5017573;28;20029;-25
2021/06/05 01:22:49;;;;;;;9.98;5.75;;;;;;;13.94;68.81;100796.44;5034607;28;20108;-25
2021/06/05 01:25:45;;;;;;;8.55;5.60;;;;;;;13.77;69.29;100792.69;5033371;28;20037;-25
2021/06/05 01:28:22;;;;;;;8.75;5.82;;;;;;;13.49;70.02;100798.53;5034420;28;20052;-25
2021/06/05 01:30:49;;;;;;;9.23;5.57;;;;;;;13.26;70.54;100790.03;5033079;28;20508;-25
2021/06/05 01:33:16;;;;;;;7.88;5.88;;;;;;;13.67;69.16;100790.53;5033227;28;20025;-25
2021/06/05 01:35:42;;;;;;;8.05;5.50;;;;;;;13.80;68.63;100792.25;5033381;28;20029;-25
2021/06/05 01:38:08;;;;;;;9.77;6.25;;;;;;;13.58;69.74;100792.66;5034284;28;20069;-25
2021/06/05 01:40:34;;;;;;;11.90;6.18;;;;;;;13.93;68.60;100784.06;5016280;28;20079;-25
2021/06/05 01:43:01;;;;;;;9.82;6.30;;;;;;;14.40;67.01;100784.31;5034518;28;20025;-25
2021/06/05 01:45:31;;;;;;;10.48;5.65;;;;;;;14.52;65.88;100780.88;5016670;28;20029;-25
2021/06/05 01:47:57;;;;;;;8.27;6.03;;;;;;;14.65;65.13;100770.00;5033380;28;20096;-25
2021/06/05 01:50:26;;;;;;;9.05;6.03;;;;;;;14.34;65.95;100758.38;5032542;28;20033;-25
2021/06/05 01:52:52;;;;;;;9.85;5.97;;;;;;;13.51;68.84;100765.13;5034234;28;20053;-25
2021/06/05 01:55:23;;;;;;;8.15;5.32;;;;;;;13.19;70.66;100781.22;5016572;28;20095;-25
2021/06/05 01:57:51;;;;;;;10.55;5.55;;;;;;;13.18;70.61;100768.88;5016968;28;20030;-25
2021/06/05 02:00:24;;;;;;;8.25;5.07;;;;;;;13.17;69.88;100769.91;5016429;28;20079;-25
2021/06/05 02:02:51;;;;;;;8.18;5.90;;;;;;;13.26;70.84;100775.84;5033170;28;20516;-25
2021/06/05 02:05:17;;;;;;;8.75;5.55;;;;;;;13.15;70.65;100782.69;5033923;28;20506;-25
2021/06/05 02:07:44;;;;;;;8.77;5.72;;;;;;;13.30;70.26;100776.22;5032746;28;20512;-25
2021/06/05 02:10:10;;;;;;;9.88;5.63;;;;;;;13.23;70.05;100773.56;5016847;28;20025;-24
2021/06/05 02:12:35;;;;;;;10.75;6.00;;;;;;;13.05;70.82;100769.78;5033552;28;20450;-25
2021/06/05 02:15:10;;;;;;;10.35;5.80;;;;;;;13.27;70.08;100780.94;5032783;28;20079;-25
2021/06/05 02:17:36;;;;;;;10.38;5.78;;;;;;;12.82;71.60;100775.72;5033925;28;20091;-25
2021/06/05 02:20:41;;;;;;;9.43;5.32;;;;;;;12.55;73.27;100779.63;5012087;28;20033;-25
2021/06/05 02:23:11;;;;;;;12.73;5.50;;;;;;;12.26;73.53;100758.56;5029725;28;20025;-25
2021/06/05 02:25:36;;;;;;;12.68;5.07;;;;;;;12.73;72.39;100778.88;5013641;28;20036;-25
2021/06/05 02:28:03;;;;;;;11.73;5.82;;;;;;;12.69;72.12;100773.16;5013370;28;20029;-25
2021/06/05 02:30:28;;;;;;;8.82;5.72;;;;;;;13.11;70.81;100786.03;5012653;28;20036;-25
2021/06/05 02:32:54;;;;;;;12.88;6.53;;;;;;;13.61;69.25;100781.50;5029951;28;20029;-25
2021/06/05 02:35:27;;;;;;;8.40;5.63;;;;;;;13.52;69.16;100782.00;5013433;28;20041;-25
2021/06/05 02:37:52;;;;;;;9.43;6.30;;;;;;;13.60;69.38;100790.56;5029508;28;20033;-24
2021/06/05 02:40:21;;;;;;;9.57;6.18;;;;;;;13.64;68.76;100777.56;5029019;28;20029;-25
2021/06/05 02:42:46;;;;;;;;;;;;;;;14.15;66.69;100780.94;5013341;28;20057;-25
2021/06/05 02:45:48;;;;;;;16.35;7.15;;;;;;;13.81;67.78;100785.84;5030348;28;20337;-25
2021/06/05 02:48:14;;;;;;;11.05;6.40;;;;;;;13.52;68.26;100772.09;5011012;28;20029;-25
2021/06/05 02:50:45;;;;;;;11.63;6.57;;;;;;;13.35;69.05;100784.44;5029713;28;20045;-25
2021/06/05 02:53:11;;;;;;;14.20;6.78;;;;;;;13.84;67.60;100780.03;5029966;28;20045;-25
2021/06/05 02:55:36;;;;;;;12.27;6.65;;;;;;;14.25;65.50;100778.53;5030045;28;20516;-25
2021/06/05 02:58:03;;;;;;;10.68;7.13;;;;;;;14.25;65.50;100786.59;5029091;28;20045;-26
2021/06/05 03:00:31;;;;;;;11.23;7.30;;;;;;;14.16;65.90;100777.19;5029941;28;20035;-25
2021/06/05 03:02:57;;;;;;;13.73;7.30;;;;;;;14.42;65.15;100792.94;5029997;28;20410;-25
2021/06/05 03:05:23;;;;;;;11.25;7.43;;;;;;;14.64;64.41;100789.81;5030005;28;20032;-25
2021/06/05 03:07:49;;;;;;;11.48;7.75;;;;;;;14.41;64.99;100791.31;5029963;28;20406;-25
2021/06/05 03:10:15;;;;;;;13.45;8.18;;;;;;;13.96;67.19;100788.97;5029684;28;20123;-25
2021/06/05 03:12:40;;;;;;;14.30;8.95;;;;;;;13.71;68.64;100797.09;5029125;28;20057;-25
2021/06/05 03:15:08;;;;;;;11.45;8.20;;;;;;;13.80;68.71;100795.75;5029900;28;20220;-25
2021/06/05 03:17:33;;;;;;;12.18;8.05;;;;;;;13.90;68.35;100784.50;5030253;28;20095;-25
2021/06/05 03:19:59;;;;;;;11.98;8.73;;;;;;;13.74;69.25;100795.81;5029777;28;20029;-24
2021/06/05 03:22:24;;;;;;;16.02;8.95;;;;;;;14.04;68.52;100790.56;5029519;28;20061;-25
2021/06/05 03:24:51;;;;;;;13.82;8.95;;;;;;;14.16;68.43;100809.38;5029563;28;20108;-24
2021/06/05 03:27:18;;;;;;;15.05;8.75;;;;;;;13.92;68.56;100777.06;5029778;28;20036;-25
2021/06/05 03:29:44;;;;;;;15.75;8.85;;;;;;;13.95;68.63;100784.66;5029581;28;20025;-25
2021/06/05 03:32:09;;;;;;;15.43;8.65;;;;;;;14.25;67.97;100798.13;5029532;28;20460;-25
2021/06/05 03:34:35;;;;;;;13.80;9.35;;;;;;;14.48;67.12;100783.19;5029366;28;20466;-25
2021/06/05 03:37:01;;;;;;;15.60;9.10;;;;;;;14.68;66.89;100782.13;5029227;28;20021;-25
2021/06/05 03:39:27;;;;;;;16.13;10.60;;;;;;;14.74;66.83;100789.28;5029452;28;20025;-25
2021/06/05 03:41:52;;;;;;;13.43;9.65;;;;;;;14.61;67.51;100784.91;5029478;28;20033;-24
2021/06/05 03:44:18;;;;;;;16.80;10.45;;;;;;;14.50;68.34;100791.00;5029175;28;20112;-25
2021/06/05 03:46:43;;;;;;;13.23;10.63;;;;;;;14.80;67.44;100791.84;5029390;28;20126;-25
2021/06/05 03:49:09;;;;;;;15.40;10.70;;;;;;;14.95;66.64;100779.84;5029271;28;20025;-25
2021/06/05 03:51:35;;;;;;;18.35;11.23;;;;;;;14.99;66.74;100770.28;5029112;28;20041;-25
2021/06/05 03:54:01;;;;;;;18.02;10.65;;;;;;;14.85;67.83;100780.41;5028969;28;20120;-25
2021/06/05 03:56:26;;;;;;;17.30;10.95;;;;;;;15.04;67.59;100775.81;5028919;28;20448;-25
2021/06/05 03:58:53;;;;;;;17.20;12.07;;;;;;;15.11;67.54;100787.25;5029554;28;20129;-25
2021/06/05 04:01:23;;;;;;;42.13;13.10;;;;;;;15.16;67.79;100792.75;5029217;28;20091;-25
2021/06/05 04:03:49;;;;;;;14.43;10.30;;;;;;;14.98;68.18;100787.47;5028897;28;20441;-26
2021/06/05 04:06:15;;;;;;;13.25;10.52;;;;;;;15.20;67.84;100787.72;5028650;28;20032;-26
2021/06/05 04:08:41;;;;;;;15.05;11.38;;;;;;;15.04;68.48;100784.69;5029689;28;20521;-25
2021/06/05 04:11:06;;;;;;;14.93;11.20;;;;;;;15.29;68.44;100801.66;5029139;28;20132;-25
2021/06/05 04:13:32;;;;;;;16.38;10.23;;;;;;;15.04;68.75;100790.03;5028817;28;20039;-25
2021/06/05 04:15:57;;;;;;;16.75;11.40;;;;;;;15.21;68.98;100800.94;5027293;28;20033;-25
2021/06/05 04:18:30;;;;;;;15.50;11.63;;;;;;;15.60;68.60;100806.69;5028445;28;20041;-25
2021/06/05 04:20:56;;;;;;;16.02;10.43;;;;;;;15.55;68.57;100797.69;5028674;28;20025;-26
2021/06/05 04:23:21;;;;;;;15.02;10.48;;;;;;;15.68;68.56;100792.88;5029100;28;20865;-25
2021/06/05 04:25:47;;;;;;;15.57;10.80;;;;;;;15.94;67.89;100793.50;5028608;28;20037;-25
2021/06/05 04:28:13;;;;;;;14.20;9.57;;;;;;;15.73;67.90;100780.63;5028509;28;20056;-25
2021/06/05 04:30:39;;;;;;;13.73;9.82;;;;;;;15.43;68.43;100776.19;5028446;28;20613;-25
2021/06/05 04:33:05;;;;;;;14.30;10.60;;;;;;;15.27;69.86;100783.88;5027094;28;20033;-25
2021/06/05 04:35:31;;;;;;;14.07;9.98;;;;;;;15.39;69.88;100775.03;5028050;28;20098;-26
2021/06/05 04:37:56;;;;;;;13.60;9.60;;;;;;;15.74;68.96;100771.53;5028605;28;20041;-25
2021/06/05 04:40:22;;;;;;;14.02;9.60;;;;;;;15.84;68.20;100771.75;5027144;28;20030;-25
2021/06/05 04:42:49;;;;;;;14.30;8.80;;;;;;;15.84;67.77;100787.88;5027820;28;20079;-25
2021/06/05 04:45:14;;;;;;;12.75;8.60;;;;;;;16.22;67.31;100784.66;5028308;28;20032;-25
2021/06/05 04:47:40;;;;;;;11.32;8.82;;;;;;;16.56;66.01;100789.31;5028153;28;20033;-25
2021/06/05 04:50:09;;;;;;;14.23;8.35;;;;;;;15.85;67.76;100762.63;5028047;28;20086;-25
2021/06/05 04:52:35;;;;;;;12.68;8.98;;;;;;;16.21;68.42;100782.19;5028083;28;20057;-25
2021/06/05 04:55:01;;;;;;;13.45;8.98;;;;;;;16.36;67.56;100769.03;5027185;28;20029;-25
2021/06/05 04:57:26;;;;;;;11.02;8.50;;;;;;;16.54;67.00;100777.97;5028127;28;20052;-25
2021/06/05 04:59:52;;;;;;;13.02;8.57;;;;;;;16.68;65.45;100752.38;5026814;28;20032;-25
2021/06/05 05:02:17;;;;;;;16.27;9.75;;;;;;;16.97;65.76;100771.22;5027754;28;20033;-25
2021/06/05 05:04:43;;;;;;;11.82;9.15;;;;;;;16.72;66.60;100776.97;5027788;28;20029;-25
2021/06/05 05:07:12;;;;;;;13.85;9.27;;;;;;;16.58;67.12;100776.44;5028069;28;20028;-25
2021/06/05 05:09:38;;;;;;;13.43;9.82;;;;;;;16.77;67.02;100767.06;5027990;28;20025;-25
2021/06/05 05:12:05;;;;;;;13.55;9.55;;;;;;;16.94;65.74;100769.00;5028144;28;20069;-25
2021/06/05 05:14:31;;;;;;;14.95;10.77;;;;;;;17.15;64.77;100768.28;5027758;28;20055;-25
2021/06/05 05:16:57;;;;;;;15.68;9.98;;;;;;;17.22;65.15;100765.41;5027709;28;20060;-26
2021/06/05 05:19:23;;;;;;;15.20;9.30;;;;;;;17.45;64.15;100780.63;5027937;28;20064;-28
2021/06/05 05:21:48;;;;;;;11.45;8.55;;;;;;;17.06;64.30;100773.28;5028406;28;20033;-25
2021/06/05 05:24:14;;;;;;;9.80;8.15;;;;;;;17.01;64.52;100786.66;5027932;28;20030;-25
2021/06/05 05:26:39;;;;;;;10.90;8.13;;;;;;;17.29;64.20;100781.44;5027882;28;20026;-25
2021/06/05 05:29:05;;;;;;;11.68;7.75;;;;;;;17.63;62.56;100787.59;5027878;28;20481;-26
2021/06/05 05:31:30;;;;;;;13.43;8.07;;;;;;;17.75;63.13;100795.59;5027544;28;20134;-25
2021/06/05 05:33:56;;;;;;;12.48;10.20;;;;;;;17.53;63.07;100772.09;5027610;28;20033;-25
2021/06/05 05:36:27;;;;;;;13.57;7.97;;;;;;;17.74;63.24;100777.78;5027639;28;20489;-25
2021/06/05 05:38:53;;;;;;;9.60;7.25;;;;;;;17.78;62.13;100785.13;5010447;28;20045;-25
2021/06/05 05:41:19;;;;;;;9.73;7.40;;;;;;;17.87;62.01;100785.53;5027658;28;20034;-25
2021/06/05 05:43:44;;;;;;;10.88;8.07;;;;;;;18.43;60.90;100802.41;5027609;28;20029;-25
2021/06/05 05:46:10;;;;;;;10.30;8.07;;;;;;;18.05;61.19;100790.63;5027457;28;20029;-25
2021/06/05 05:48:36;;;;;;;11.07;7.03;;;;;;;17.82;62.26;100797.03;5027496;28;20038;-25
2021/06/05 05:51:02;;;;;;;9.88;7.35;;;;;;;18.20;61.92;100794.56;5027390;28;20037;-25
2021/06/05 05:53:28;;;;;;;12.50;8.70;;;;;;;18.54;60.87;100791.72;5027404;28;20045;-25
2021/06/05 05:55:53;;;;;;;10.52;7.22;;;;;;;18.59;60.39;100773.69;5031085;28;20029;-25
2021/06/05 05:58:20;;;;;;;11.35;8.07;;;;;;;18.53;60.94;100790.91;5030934;28;20033;-25
2021/06/05 06:00:47;;;;;;;10.98;7.65;;;;;;;18.73;60.62;100768.66;5031121;28;20508;-25
2021/06/05 06:03:13;;;;;;;9.75;7.63;;;;;;;19.05;59.75;100781.44;5031061;28;20040;-25
2021/06/05 06:05:39;;;;;;;13.63;7.47;;;;;;;18.75;60.29;100763.03;5031132;28;20612;-25
2021/06/05 06:08:05;;;;;;;10.80;6.55;;;;;;;18.73;58.34;100763.25;5031159;28;20049;-25
2021/06/05 06:10:30;;;;;;;10.15;6.50;;;;;;;19.09;58.22;100776.31;5029605;28;20064;-25
2021/06/05 06:12:56;;;;;;;11.50;6.85;;;;;;;18.55;58.69;100755.53;5031026;28;20033;-26
2021/06/05 06:15:24;;;;;;;11.40;7.43;;;;;;;19.07;58.45;100755.75;5029820;28;20025;-25
2021/06/05 06:17:49;;;;;;;12.80;7.65;;;;;;;19.05;57.72;100754.41;5031064;28;20032;-25
2021/06/05 06:20:26;;;;;;;9.82;6.95;;;;;;;19.30;58.11;100764.56;5031031;28;20037;-25
2021/06/05 06:22:51;;;;;;;12.25;7.65;;;;;;;19.04;57.92;100761.69;5030821;28;20029;-25
2021/06/05 06:25:20;;;;;;;9.85;7.47;;;;;;;19.40;57.54;100750.31;5030843;28;20545;-25
2021/06/05 06:27:47;;;;;;;14.00;8.95;;;;;;;19.68;57.05;100757.25;5030561;28;20026;-25
2021/06/05 06:30:25;;;;;;;11.55;7.93;;;;;;;19.44;56.80;100751.41;5030620;28;20030;-25
2021/06/05 06:32:53;;;;;;;;;;;;;;;19.73;58.12;100742.94;5031352;28;20105;-24
2021/06/05 06:35:26;;;;;;;10.48;7.28;;;;;;;19.47;57.34;100723.84;5030970;28;19913;-24
2021/06/05 06:37:51;;;;;;;12.50;7.93;;;;;;;20.13;55.99;100741.50;5030469;28;20554;-25
2021/06/05 06:40:19;;;;;;;11.63;8.40;;;;;;;20.01;56.02;100730.91;5030138;28;20037;-25
2021/06/05 06:42:44;;;;;;;10.18;7.35;;;;;;;20.52;54.92;100732.91;5030263;28;20029;-25
2021/06/05 06:45:11;;;;;;;16.80;9.13;;;;;;;20.68;55.17;100737.31;5030556;28;20052;-25
2021/06/05 06:47:37;;;;;;;10.32;7.00;;;;;;;20.53;53.38;100724.50;5030328;28;20118;-25
2021/06/05 06:50:05;;;;;;;9.90;7.70;;;;;;;20.32;53.43;100737.19;5030352;28;20041;-25
2021/06/05 06:52:30;;;;;;;11.73;8.35;;;;;;;20.45;55.26;100734.00;5029770;28;20053;-25
2021/06/05 06:54:57;;;;;;;12.68;8.02;;;;;;;20.70;55.39;100735.13;5029968;28;20049;-25
2021/06/05 06:57:22;;;;;;;11.85;8.60;;;;;;;20.77;56.29;100724.00;5030325;28;20033;-25
2021/06/05 06:59:48;;;;;;;13.30;8.10;;;;;;;21.32;54.83;100721.53;5030395;28;20037;-24
2021/06/05 07:02:13;;;;;;;13.68;8.85;;;;;;;21.06;54.52;100710.72;5030073;28;20029;-26
2021/06/05 07:04:39;;;;;;;11.35;9.95;;;;;;;21.17;54.25;100706.09;5029493;28;20073;-24
2021/06/05 07:07:05;;;;;;;12.05;9.90;;;;;;;20.96;53.78;100699.88;5029972;28;20029;-25
2021/06/05 07:09:32;;;;;;;11.50;9.88;;;;;;;20.66;56.01;100701.53;5028480;28;20032;-25
2021/06/05 07:11:58;;;;;;;19.97;9.90;;;;;;;21.24;55.11;100707.41;5030177;28;20021;-24
2021/06/05 07:14:23;;;;;;;12.40;9.48;;;;;;;21.38;53.67;100704.16;5029643;28;20030;-25
2021/06/05 07:16:49;;;;;;;11.80;10.43;;;;;;;21.20;54.73;100702.81;5029757;28;20116;-24
2021/06/05 07:19:15;;;;;;;11.85;10.13;;;;;;;21.07;54.82;100707.72;5029679;28;20033;-25
2021/06/05 07:21:41;;;;;;;13.45;10.02;;;;;;;21.18;55.48;100697.66;5029774;28;20499;-25
2021/06/05 07:24:06;;;;;;;13.95;10.07;;;;;;;21.83;54.58;100703.19;5029396;28;20061;-24
2021/06/05 07:26:32;;;;;;;11.60;9.30;;;;;;;21.91;53.07;100701.81;5029321;28;20559;-24
2021/06/05 07:28:59;;;;;;;14.20;9.50;;;;;;;21.87;52.25;100698.03;5028176;28;20112;-24
2021/06/05 07:31:49;;;;;;;13.10;8.90;;;;;;;21.84;52.69;100698.56;5028481;28;20482;-24
2021/06/05 07:34:15;;;;;;;15.88;9.55;;;;;;;22.46;52.36;100701.78;5029266;28;20269;-24
2021/06/05 07:36:43;;;;;;;14.13;8.70;;;;;;;22.39;51.22;100696.69;5029222;28;20593;-25
2021/06/05 07:39:11;;;;;;;;;;;;;;;22.03;52.29;100702.28;5028581;28;20037;-25
2021/06/05 07:41:36;;;;;;;;;;;;;;;22.20;51.02;100706.53;5029771;28;19920;-25
2021/06/05 07:44:03;;;;;;;12.13;8.93;;;;;;;22.49;51.64;100703.13;5029783;28;19913;-24
2021/06/05 07:46:28;;;;;;;12.40;8.90;;;;;;;22.84;50.29;100702.84;5028977;28;20048;-25
2021/06/05 07:48:54;;;;;;;9.82;7.68;;;;;;;22.39;51.46;100687.69;5029041;28;20060;-25
2021/06/05 07:51:20;;;;;;;9.82;8.52;;;;;;;22.83;49.53;100697.69;5028875;28;20490;-24
2021/06/05 07:53:47;;;;;;;11.80;8.15;;;;;;;22.80;48.73;100698.25;5029261;28;20136;-25
2021/06/05 07:56:13;;;;;;;11.02;8.20;;;;;;;23.00;49.25;100699.97;5028663;28;20040;-26
2021/06/05 07:58:39;;;;;;;9.85;8.55;;;;;;;23.11;48.33;100698.81;5029121;28;20112;-26
2021/06/05 08:01:04;;;;;;;10.80;7.95;;;;;;;23.45;47.92;100703.34;5029354;28;20099;-25
2021/06/05 08:03:30;;;;;;;9.18;7.60;;;;;;;23.33;47.81;100695.56;5029061;28;20033;-24
2021/06/05 08:05:56;;;;;;;10.52;7.72;;;;;;;23.55;47.40;100692.34;5028664;28;20068;-24
2021/06/05 08:08:21;;;;;;;9.18;6.70;;;;;;;23.52;46.37;100681.22;5028701;28;20025;-24
2021/06/05 08:10:47;;;;;;;10.45;6.88;;;;;;;23.37;47.23;100691.16;5028834;28;20087;-25
2021/06/05 08:13:13;;;;;;;9.15;6.22;;;;;;;23.47;44.21;100695.69;5028714;28;20235;-24
2021/06/05 08:15:41;;;;;;;9.93;7.25;;;;;;;23.55;44.65;100697.78;5028447;28;20120;-24
2021/06/05 08:18:06;;;;;;;;;;;;;;;23.74;47.14;100697.00;5028459;28;20520;-24
2021/06/05 08:20:43;;;;;;;12.25;6.38;;;;;;;24.06;44.19;100697.16;5028231;28;19929;-24
2021/06/05 08:23:10;;;;;;;8.70;6.20;;;;;;;24.24;43.41;100694.72;5028613;28;20036;-25
2021/06/05 08:25:35;;;;;;;8.98;7.32;;;;;;;24.30;45.35;100695.47;5028567;28;20486;-26
2021/06/05 08:28:01;;;;;;;10.15;8.32;;;;;;;24.23;44.81;100690.38;5028834;28;20064;-24
2021/06/05 08:30:30;;;;;;;9.85;6.90;;;;;;;23.99;44.12;100685.81;5028330;28;20031;-24
2021/06/05 08:32:56;;;;;;;8.00;6.60;;;;;;;24.15;43.35;100691.88;5027230;28;20084;-25
2021/06/05 08:35:21;;;;;;;11.75;7.15;;;;;;;24.32;46.63;100688.59;5028653;28;20029;-24
2021/06/05 08:37:47;;;;;;;10.52;8.23;;;;;;;24.59;43.00;100671.56;5028233;28;20416;-24
2021/06/05 08:40:14;;;;;;;9.38;7.07;;;;;;;24.94;43.99;100668.53;5026900;28;20060;-24
2021/06/05 08:42:47;;;;;;;8.60;6.68;;;;;;;24.75;43.20;100674.06;5028244;28;20021;-24
2021/06/05 08:45:12;;;;;;;9.57;7.32;;;;;;;24.85;45.64;100669.22;5027186;28;20037;-25
2021/06/05 08:47:38;;;;;;;7.88;6.70;;;;;;;24.96;42.91;100679.94;5026897;28;20025;-26
2021/06/05 08:50:15;;;;;;;12.77;7.38;;;;;;;25.60;41.36;100671.91;5028725;28;20057;-24
2021/06/05 08:53:09;;;;;;;8.07;5.78;;;;;;;25.13;40.81;100646.59;5028019;28;20042;-24
2021/06/05 08:55:34;;;;;;;10.98;6.15;;;;;;;25.10;40.85;100667.13;5027997;28;20028;-24
2021/06/05 08:58:29;;;;;;;8.98;6.00;;;;;;;25.08;40.29;100666.63;5027747;28;20417;-24
2021/06/05 09:01:04;;;;;;;7.25;4.60;;;;;;;24.97;38.61;100655.09;5028044;28;20112;-24
2021/06/05 09:03:31;;;;;;;7.95;5.55;;;;;;;25.45;41.27;100670.31;5027865;28;20034;-24
2021/06/05 09:06:06;;;;;;;7.30;5.18;;;;;;;25.26;41.22;100659.50;5028044;28;20029;-24
2021/06/05 09:08:32;;;;;;;6.80;5.50;;;;;;;25.63;39.39;100650.25;5027604;28;20059;-25
2021/06/05 09:11:01;;;;;;;8.57;4.30;;;;;;;25.67;37.18;100662.19;5027949;28;20029;-24
2021/06/05 09:13:26;;;;;;;5.82;4.88;;;;;;;26.12;38.02;100666.19;5028137;28;20021;-24
2021/06/05 09:16:24;;;;;;;6.22;4.28;;;;;;;25.71;36.05;100656.13;5027777;28;20087;-25
2021/06/05 09:18:52;;;;;;;;;;;;;;;26.15;35.06;100654.59;5028129;28;20029;-24
2021/06/05 09:21:34;;;;;;;7.40;3.60;;;;;;;26.46;32.81;100633.63;5027674;28;20332;-25
2021/06/05 09:24:13;;;;;;;7.38;4.00;;;;;;;26.21;34.50;100653.38;5028021;28;20863;-24
2021/06/05 09:26:39;;;;;;;6.15;3.83;;;;;;;26.71;33.16;100622.38;5027785;28;20457;-24
2021/06/05 09:29:16;;;;;;;4.85;3.00;;;;;;;26.36;30.99;100622.94;5013185;28;20147;-24
2021/06/05 09:32:08;;;;;;;8.00;4.70;;;;;;;26.66;34.97;100634.25;5032122;28;20076;-25
2021/06/05 09:34:35;;;;;;;6.72;4.13;;;;;;;25.93;35.26;100637.09;5030429;28;20033;-25
2021/06/05 09:37:02;;;;;;;7.63;3.90;;;;;;;26.57;34.10;100630.63;5030193;28;20405;-24
2021/06/05 09:39:57;;;;;;;7.28;3.50;;;;;;;27.53;32.43;100626.38;5030324;28;20087;-25
2021/06/05 09:42:30;;;;;;;5.47;3.40;;;;;;;27.85;30.51;100627.09;5015074;28;20091;-24
2021/06/05 09:44:56;;;;;;;5.68;3.58;;;;;;;27.76;30.13;100624.31;5031505;28;20041;-24
2021/06/05 09:47:24;;;;;;;5.95;3.60;;;;;;;27.61;32.19;100611.91;5013735;28;20033;-24
2021/06/05 09:49:56;;;;;;;5.55;3.45;;;;;;;27.51;31.08;100612.22;5031214;28;20512;-24
2021/06/05 09:52:24;;;;;;;5.20;2.88;;;;;;;27.77;30.35;100619.66;5031532;28;20053;-24
2021/06/05 09:54:52;;;;;;;5.72;3.28;;;;;;;27.89;30.15;100606.16;5031349;28;20071;-25
2021/06/05 09:57:29;;;;;;;5.28;2.80;;;;;;;28.65;27.74;100611.06;5029877;28;20033;-26
2021/06/05 10:00:04;;;;;;;4.70;3.45;;;;;;;28.86;30.35;100596.59;5031194;28;20563;-24
2021/06/05 10:02:29;;;;;;;7.25;3.45;;;;;;;28.76;30.51;100606.00;5031322;28;20148;-24
2021/06/05 10:05:12;;;;;;;5.40;3.58;;;;;;;29.02;30.47;100599.59;5031154;28;20505;-24
2021/06/05 10:07:37;;;;;;;7.07;3.50;;;;;;;29.61;28.77;100599.59;5031490;28;20038;-24
2021/06/05 10:10:28;;;;;;;6.10;3.40;;;;;;;29.74;28.75;100600.50;5029776;28;20029;-24
2021/06/05 10:12:53;;;;;;;5.45;3.13;;;;;;;29.09;29.45;100599.88;5029438;28;20481;-24
2021/06/05 10:15:23;;;;;;;5.47;3.10;;;;;;;27.98;30.41;100597.91;5029779;28;20083;-24
2021/06/05 10:17:56;;;;;;;4.47;3.20;;;;;;;27.75;31.32;100584.34;5013299;28;20592;-24
2021/06/05 10:20:25;;;;;;;7.00;3.38;;;;;;;27.40;31.47;100586.22;5013795;28;20026;-24
2021/06/05 10:22:56;;;;;;;6.35;3.55;;;;;;;27.13;32.33;100590.81;5029387;28;20476;-25
2021/06/05 10:25:36;;;;;;;5.72;3.17;;;;;;;26.95;30.69;100597.34;5013041;28;20026;-24
2021/06/05 10:28:07;;;;;;;8.05;3.28;;;;;;;27.11;32.32;100581.31;5030619;28;20456;-24
2021/06/05 10:30:42;;;;;;;5.55;3.50;;;;;;;27.54;30.89;100584.16;5029381;28;20025;-24
2021/06/05 10:33:14;;;;;;;5.32;3.10;;;;;;;27.82;31.10;100581.13;5029554;28;20037;-24
2021/06/05 10:35:39;;;;;;;5.88;3.00;;;;;;;28.35;30.24;100574.47;5013336;28;20099;-24
2021/06/05 10:38:17;;;;;;;5.93;2.95;;;;;;;28.69;30.81;100561.81;5029118;28;20507;-24
2021/06/05 10:40:42;;;;;;;;;;;;;;;28.08;30.39;100566.63;5028856;28;20057;-24
2021/06/05 10:43:12;;;;;;;4.57;3.00;;;;;;;27.29;29.73;100566.56;5030496;28;19959;-26
2021/06/05 10:45:39;;;;;;;3.45;2.78;;;;;;;27.62;30.28;100553.25;5029063;28;20036;-24
2021/06/05 10:48:27;;;;;;;6.70;3.55;;;;;;;28.36;30.98;100559.63;5029095;28;20034;-24
2021/06/05 10:50:59;;;;;;;4.53;2.72;;;;;;;28.90;30.38;100555.59;5014928;28;20052;-24
2021/06/05 10:53:24;;;;;;;4.30;2.90;;;;;;;29.53;26.88;100561.19;5030357;28;20104;-26
2021/06/05 10:55:58;;;;;;;5.95;3.03;;;;;;;29.17;28.79;100555.13;5030286;28;20057;-24
2021/06/05 10:58:27;;;;;;;4.60;3.08;;;;;;;29.43;27.90;100565.16;5028492;28;20121;-24
2021/06/05 11:01:05;;;;;;;5.18;2.92;;;;;;;29.44;28.68;100551.06;5029863;28;20044;-24
2021/06/05 11:03:30;;;;;;;3.58;2.63;;;;;;;29.59;24.68;100555.16;5013645;28;20604;-24
2021/06/05 11:06:15;;;;;;;6.40;2.50;;;;;;;29.91;26.34;100549.25;5029904;28;20112;-24
2021/06/05 11:08:48;;;;;;;5.85;2.58;;;;;;;29.19;26.52;100546.56;5028959;28;20559;-25
2021/06/05 11:11:35;;;;;;;5.53;3.00;;;;;;;29.36;26.57;100537.38;5029583;28;20524;-24
2021/06/05 11:14:35;;;;;;;6.53;2.78;;;;;;;30.28;25.04;100536.44;5030103;28;20049;-24
2021/06/05 11:17:03;;;;;;;5.32;2.38;;;;;;;30.52;22.65;100535.66;5029692;28;20087;-24
2021/06/05 11:19:34;;;;;;;3.42;2.40;;;;;;;30.68;22.56;100522.03;5029534;28;20060;-24
2021/06/05 11:22:11;;;;;;;4.63;2.40;;;;;;;30.60;21.45;100520.19;5029713;28;20561;-24
2021/06/05 11:24:37;;;;;;;3.13;1.98;;;;;;;29.49;23.18;100522.59;5029903;28;20490;-24
2021/06/05 11:27:05;;;;;;;4.18;2.10;;;;;;;28.80;24.37;100524.63;5028413;28;20021;-24
2021/06/05 11:29:31;;;;;;;3.38;1.95;;;;;;;28.62;24.50;100528.56;5029482;28;20059;-24